Time;durP1;ratioP1;P1;durP2;ratioP2;P2;SDS_P1;SDS_P2;PMS_P1;PMS_P2;Temp;Humidity;BMP_temperature;BMP_pressure;BME280_temperature;BME280_humidity;BME280_pressure;Samples;Min_cycle;Max_cycle;Signal;HPM_P1;HPM_P2
2022/01/11 00:00:12;;;;;;;72.73;14.57;;;2.00;99.20;;;;;;5062360;28;21135;-48
2022/01/11 00:02:43;;;;;;;64.00;13.77;;;2.00;99.30;;;;;;5046560;28;20486;-47
2022/01/11 00:05:17;;;;;;;88.13;16.37;;;2.00;99.40;;;;;;5034489;28;20487;-48
2022/01/11 00:07:44;;;;;;;36.83;11.00;;;2.00;99.20;;;;;;5049893;28;20996;-48
2022/01/11 00:10:14;;;;;;;54.67;13.00;;;1.90;99.20;;;;;;5045104;28;20493;-48
2022/01/11 00:12:42;;;;;;;44.30;11.67;;;1.90;99.10;;;;;;5038752;28;20725;-48
2022/01/11 00:15:09;;;;;;;50.07;10.90;;;1.90;99.20;;;;;;5043901;28;20575;-48
2022/01/11 00:17:36;;;;;;;48.20;12.20;;;1.80;99.10;;;;;;5045445;28;21136;-48
2022/01/11 00:20:04;;;;;;;43.87;12.93;;;1.80;99.00;;;;;;5048757;28;20485;-48
2022/01/11 00:22:34;;;;;;;31.27;12.07;;;1.80;99.00;;;;;;5049405;28;20489;-48
2022/01/11 00:25:01;;;;;;;44.97;11.90;;;1.70;99.00;;;;;;5049239;28;20493;-47
2022/01/11 00:27:27;;;;;;;46.97;12.63;;;1.70;99.10;;;;;;5044423;28;20482;-49
2022/01/11 00:30:01;;;;;;;65.67;11.87;;;1.70;99.10;;;;;;5050441;28;20485;-48
2022/01/11 00:32:38;;;;;;;37.13;10.97;;;1.70;99.20;;;;;;5050654;28;20526;-47
2022/01/11 00:35:10;;;;;;;48.60;12.93;;;1.70;99.10;;;;;;5055689;28;20480;-48
2022/01/11 00:37:37;;;;;;;46.60;12.37;;;1.70;99.10;;;;;;5065781;28;21005;-48
2022/01/11 00:40:07;;;;;;;59.27;13.20;;;3.20;99.90;;;;;;5069634;28;20484;-48
2022/01/11 00:42:34;;;;;;;55.67;12.13;;;1.80;99.30;;;;;;5081016;27;20489;-48
2022/01/11 00:45:02;;;;;;;27.17;10.57;;;1.80;99.20;;;;;;5076886;27;20534;-47
2022/01/11 00:47:28;;;;;;;37.60;11.37;;;1.70;98.90;;;;;;5067389;28;20493;-48
2022/01/11 00:49:55;;;;;;;74.10;13.57;;;1.80;99.20;;;;;;5055838;28;20481;-47
2022/01/11 00:52:22;;;;;;;47.57;12.53;;;1.70;99.00;;;;;;5058662;27;20483;-47
2022/01/11 00:54:49;;;;;;;77.23;14.20;;;1.70;98.80;;;;;;5076676;27;20492;-48
2022/01/11 00:57:15;;;;;;;59.13;13.50;;;1.70;99.10;;;;;;5042826;28;20481;-48
2022/01/11 00:59:42;;;;;;;40.40;11.47;;;1.70;99.00;;;;;;5048642;28;20558;-48
2022/01/11 01:02:10;;;;;;;65.87;12.93;;;1.70;99.00;;;;;;5061332;27;20916;-47
2022/01/11 01:04:37;;;;;;;62.77;13.60;;;1.70;99.00;;;;;;5063401;27;21027;-48
2022/01/11 01:07:04;;;;;;;114.03;16.80;;;1.70;98.90;;;;;;5053203;28;20485;-48
2022/01/11 01:09:39;;;;;;;110.53;18.17;;;1.70;99.00;;;;;;5063888;28;20533;-48
2022/01/11 01:12:07;;;;;;;160.70;20.23;;;1.80;99.00;;;;;;5062952;28;21054;-48
2022/01/11 01:14:34;;;;;;;119.47;17.00;;;1.80;98.90;;;;;;5078624;28;20489;-47
2022/01/11 01:17:01;;;;;;;126.63;17.23;;;1.90;98.80;;;;;;5058845;27;20483;-48
2022/01/11 01:19:29;;;;;;;54.30;13.20;;;1.70;98.40;;;;;;5067192;28;20521;-48
2022/01/11 01:21:56;;;;;;;73.90;13.53;;;1.70;98.90;;;;;;5044921;28;20505;-48
2022/01/11 01:24:23;;;;;;;66.47;13.60;;;1.80;99.00;;;;;;5048590;28;20517;-48
2022/01/11 01:26:50;;;;;;;62.60;12.03;;;1.70;98.70;;;;;;5048670;28;20490;-47
2022/01/11 01:29:16;;;;;;;77.20;15.37;;;1.60;98.50;;;;;;5050500;28;20474;-48
2022/01/11 01:31:43;;;;;;;52.77;11.80;;;1.60;98.90;;;;;;5036666;28;20497;-48
2022/01/11 01:34:10;;;;;;;44.03;11.83;;;1.70;99.00;;;;;;5055146;28;20489;-47
2022/01/11 01:36:38;;;;;;;53.53;14.53;;;1.70;98.80;;;;;;5053732;28;20475;-47
2022/01/11 01:39:06;;;;;;;36.30;10.57;;;1.80;98.90;;;;;;5057860;28;20528;-47
2022/01/11 01:41:33;;;;;;;45.97;11.83;;;1.80;98.90;;;;;;5055840;28;21210;-48
2022/01/11 01:44:02;;;;;;;85.87;13.37;;;1.70;98.50;;;;;;5058221;28;20486;-48
2022/01/11 01:46:29;;;;;;;50.17;12.30;;;1.70;98.70;;;;;;5053824;28;20488;-47
2022/01/11 01:48:59;;;;;;;49.00;11.57;;;1.70;98.80;;;;;;5061236;28;20489;-48
2022/01/11 01:51:26;;;;;;;31.00;9.50;;;1.70;98.70;;;;;;5054969;28;20478;-48
2022/01/11 01:53:55;;;;;;;65.90;12.50;;;1.60;98.40;;;;;;5063774;28;20489;-48
2022/01/11 01:56:23;;;;;;;57.30;13.90;;;1.70;98.70;;;;;;5062177;28;20531;-47
2022/01/11 01:58:50;;;;;;;45.90;12.60;;;1.60;98.50;;;;;;5060297;28;20558;-47
2022/01/11 02:01:20;;;;;;;36.37;12.00;;;1.70;98.80;;;;;;5060411;28;20983;-47
2022/01/11 02:03:47;;;;;;;47.87;11.57;;;1.70;98.90;;;;;;5049004;28;20486;-47
2022/01/11 02:06:16;;;;;;;59.50;12.60;;;1.70;98.70;;;;;;5064097;28;20524;-48
2022/01/11 02:08:44;;;;;;;26.63;10.77;;;1.80;98.90;;;;;;5077367;28;21378;-47
2022/01/11 02:11:15;;;;;;;42.03;13.53;;;1.80;98.80;;;;;;5057525;28;21223;-47
2022/01/11 02:13:42;;;;;;;48.03;13.20;;;1.80;98.70;;;;;;5055930;28;20480;-47
2022/01/11 02:16:08;;;;;;;47.13;12.30;;;1.70;98.20;;;;;;5074893;28;20488;-48
2022/01/11 02:18:35;;;;;;;63.00;15.47;;;1.70;98.50;;;;;;5078145;28;20610;-47
2022/01/11 02:21:03;;;;;;;63.13;15.43;;;1.70;98.70;;;;;;5073276;28;20487;-47
2022/01/11 02:23:30;;;;;;;44.53;13.57;;;1.60;98.60;;;;;;5077932;28;20482;-47
2022/01/11 02:25:58;;;;;;;62.67;14.87;;;1.60;98.80;;;;;;5078120;28;20473;-47
2022/01/11 02:28:27;;;;;;;30.10;12.83;;;1.60;98.80;;;;;;5084557;27;20489;-47
2022/01/11 02:30:55;;;;;;;32.03;12.73;;;1.60;99.10;;;;;;5076091;27;20542;-48
2022/01/11 02:33:33;;;;;;;47.07;14.33;;;1.60;99.40;;;;;;5074951;28;20567;-48
2022/01/11 02:36:01;;;;;;;67.63;13.00;;;1.60;99.00;;;;;;5070864;28;20488;-47
2022/01/11 02:38:29;;;;;;;50.73;13.80;;;1.60;99.00;;;;;;5071648;28;20586;-48
2022/01/11 02:40:56;;;;;;;38.90;13.07;;;1.60;99.00;;;;;;5070950;28;20472;-47
2022/01/11 02:43:22;;;;;;;65.70;14.97;;;1.60;99.10;;;;;;5070216;27;20529;-49
2022/01/11 02:45:49;;;;;;;52.53;14.03;;;1.60;99.30;;;;;;5098917;27;20489;-47
2022/01/11 02:48:16;;;;;;;65.80;15.87;;;1.60;99.00;;;;;;5078328;28;20853;-47
2022/01/11 02:50:44;;;;;;;50.50;17.20;;;1.50;99.10;;;;;;5079184;28;20473;-48
2022/01/11 02:53:11;;;;;;;60.63;16.77;;;1.50;99.30;;;;;;5075840;28;20518;-47
2022/01/11 02:55:40;;;;;;;91.53;17.90;;;1.50;99.30;;;;;;5078273;27;20923;-47
2022/01/11 02:58:07;;;;;;;84.33;15.63;;;1.50;99.30;;;;;;5075974;27;20956;-49
2022/01/11 03:00:34;;;;;;;78.13;16.70;;;1.60;99.20;;;;;;5096875;27;20604;-47
2022/01/11 03:03:10;;;;;;;43.97;14.00;;;1.60;99.20;;;;;;5078371;28;20535;-47
2022/01/11 03:05:37;;;;;;;55.37;14.50;;;1.60;98.90;;;;;;5080909;28;20962;-47
2022/01/11 03:08:04;;;;;;;45.37;12.50;;;1.60;98.80;;;;;;5075792;28;20465;-47
2022/01/11 03:10:32;;;;;;;40.13;13.03;;;1.50;99.10;;;;;;5076144;28;20476;-48
2022/01/11 03:13:01;;;;;;;72.00;15.20;;;1.50;98.70;;;;;;5078412;28;20878;-47
2022/01/11 03:15:27;;;;;;;52.83;15.07;;;1.40;98.80;;;;;;5047227;28;20483;-47
2022/01/11 03:17:54;;;;;;;37.83;12.53;;;1.40;98.70;;;;;;5057684;28;20530;-47
2022/01/11 03:20:21;;;;;;;33.50;12.10;;;1.40;99.00;;;;;;5054334;28;20513;-47
2022/01/11 03:22:48;;;;;;;30.20;11.93;;;1.40;98.80;;;;;;5076897;27;20472;-47
2022/01/11 03:25:16;;;;;;;24.00;10.27;;;1.40;98.90;;;;;;5075018;28;20480;-47
2022/01/11 03:27:44;;;;;;;38.97;13.00;;;1.40;98.90;;;;;;5073585;28;20495;-47
2022/01/11 03:30:12;;;;;;;36.37;12.13;;;1.30;98.70;;;;;;5049005;28;20474;-47
2022/01/11 03:32:39;;;;;;;31.73;10.30;;;1.30;98.80;;;;;;5067178;28;20486;-49
2022/01/11 03:35:08;;;;;;;27.33;11.80;;;1.30;98.90;;;;;;5060241;28;20537;-49
2022/01/11 03:37:34;;;;;;;40.17;11.93;;;1.30;98.90;;;;;;5057031;28;20484;-47
2022/01/11 03:40:01;;;;;;;46.13;13.40;;;1.30;98.80;;;;;;5058598;28;20908;-47
2022/01/11 03:42:28;;;;;;;46.77;12.37;;;1.30;98.80;;;;;;5051683;28;20828;-47
2022/01/11 03:44:55;;;;;;;37.73;12.30;;;1.30;98.80;;;;;;5067753;28;20544;-48
2022/01/11 03:47:23;;;;;;;41.03;12.57;;;1.30;98.80;;;;;;5059258;28;20498;-47
2022/01/11 03:49:50;;;;;;;41.30;12.90;;;1.30;98.90;;;;;;5055197;28;20485;-47
2022/01/11 03:52:17;;;;;;;38.20;11.37;;;1.30;98.90;;;;;;5057465;28;20482;-47
2022/01/11 03:55:01;;;;;;;33.53;11.50;;;1.30;98.80;;;;;;5059181;28;20535;-47
2022/01/11 03:57:30;;;;;;;49.77;13.67;;;1.30;98.80;;;;;;5059681;28;20568;-47
2022/01/11 03:59:58;;;;;;;34.03;12.83;;;1.30;98.80;;;;;;5059782;28;20499;-47
2022/01/11 04:02:27;;;;;;;39.07;13.43;;;1.30;98.80;;;;;;5059068;28;20480;-47
2022/01/11 04:04:54;;;;;;;47.03;12.80;;;1.30;98.80;;;;;;5060898;28;21061;-47
2022/01/11 04:07:21;;;;;;;35.87;12.57;;;1.30;98.90;;;;;;5069604;27;20489;-47
2022/01/11 04:09:48;;;;;;;53.23;13.80;;;1.30;99.00;;;;;;5052322;28;20555;-47
2022/01/11 04:12:15;;;;;;;34.07;13.30;;;1.30;99.20;;;;;;5075615;28;20991;-47
2022/01/11 04:14:42;;;;;;;45.23;12.93;;;1.30;99.00;;;;;;5077174;28;20496;-47
2022/01/11 04:17:09;;;;;;;29.93;12.57;;;1.40;99.00;;;;;;5087095;27;20487;-47
2022/01/11 04:19:38;;;;;;;39.70;14.23;;;1.40;98.90;;;;;;5081047;28;20600;-47
2022/01/11 04:22:06;;;;;;;41.30;13.73;;;1.40;99.00;;;;;;5081805;28;20480;-47
2022/01/11 04:24:33;;;;;;;54.70;13.37;;;1.50;98.90;;;;;;5072983;28;20518;-47
2022/01/11 04:27:00;;;;;;;32.60;11.63;;;1.50;98.90;;;;;;5088090;27;20522;-47
2022/01/11 04:29:27;;;;;;;51.80;15.20;;;1.50;98.80;;;;;;5077210;28;21151;-47
2022/01/11 04:31:53;;;;;;;43.87;14.00;;;1.50;98.70;;;;;;5081504;28;20487;-47
2022/01/11 04:34:20;;;;;;;38.93;12.37;;;1.40;98.70;;;;;;5081175;28;20483;-47
2022/01/11 04:36:48;;;;;;;51.97;14.90;;;1.40;98.80;;;;;;5080023;27;20550;-47
2022/01/11 04:39:16;;;;;;;49.80;13.47;;;1.40;98.80;;;;;;5105893;27;21383;-47
2022/01/11 04:41:43;;;;;;;60.43;13.77;;;1.30;98.70;;;;;;5081922;27;20548;-47
2022/01/11 04:44:10;;;;;;;79.67;16.53;;;1.20;98.70;;;;;;5102590;27;21038;-47
2022/01/11 04:46:37;;;;;;;56.13;14.63;;;1.30;98.90;;;;;;5079555;27;20517;-47
2022/01/11 04:49:04;;;;;;;52.37;16.23;;;1.20;98.80;;;;;;5095776;27;20497;-47
2022/01/11 04:51:33;;;;;;;41.90;12.60;;;1.20;98.90;;;;;;5081223;28;20480;-48
2022/01/11 04:54:01;;;;;;;43.00;13.63;;;1.10;99.00;;;;;;5080346;28;20564;-48
2022/01/11 04:56:28;;;;;;;58.87;15.00;;;1.20;99.10;;;;;;5049076;28;20485;-47
2022/01/11 04:58:55;;;;;;;42.00;13.33;;;1.20;98.90;;;;;;5059598;28;20867;-47
2022/01/11 05:01:22;;;;;;;67.27;16.43;;;1.20;99.00;;;;;;5057666;27;20490;-47
2022/01/11 05:03:49;;;;;;;64.63;17.90;;;1.10;98.90;;;;;;5072761;28;20535;-47
2022/01/11 05:06:15;;;;;;;66.87;16.30;;;1.10;98.90;;;;;;5057791;28;21207;-48
2022/01/11 05:08:44;;;;;;;36.13;12.90;;;1.10;99.10;;;;;;5053175;28;20886;-53
2022/01/11 05:11:12;;;;;;;73.33;13.17;;;1.20;99.20;;;;;;5061369;28;20481;-47
2022/01/11 05:13:39;;;;;;;43.97;15.33;;;1.30;99.00;;;;;;5061569;28;20486;-47
2022/01/11 05:16:06;;;;;;;83.07;18.30;;;1.30;99.10;;;;;;5061096;28;20485;-47
2022/01/11 05:18:36;;;;;;;86.20;17.90;;;1.30;98.90;;;;;;5060576;28;20484;-47
2022/01/11 05:21:02;;;;;;;72.90;15.80;;;1.30;98.80;;;;;;5049380;28;20495;-47
2022/01/11 05:23:29;;;;;;;73.37;19.83;;;1.20;98.70;;;;;;5075321;27;20489;-48
2022/01/11 05:25:56;;;;;;;52.93;13.70;;;1.20;98.70;;;;;;5061268;28;20547;-47
2022/01/11 05:28:24;;;;;;;54.27;14.90;;;1.10;98.80;;;;;;5061473;28;20546;-47
2022/01/11 05:30:51;;;;;;;35.53;12.13;;;1.10;98.80;;;;;;5058762;28;20488;-47
2022/01/11 05:33:18;;;;;;;41.77;13.93;;;1.10;98.70;;;;;;5058279;28;20485;-47
2022/01/11 05:35:46;;;;;;;33.93;13.20;;;1.10;98.80;;;;;;5056913;28;20566;-48
2022/01/11 05:38:12;;;;;;;85.97;19.20;;;1.20;98.90;;;;;;5067226;28;20485;-47
2022/01/11 05:40:39;;;;;;;58.63;16.13;;;1.20;98.80;;;;;;5059189;28;20485;-51
2022/01/11 05:43:06;;;;;;;48.30;14.00;;;1.20;98.80;;;;;;5058605;28;20539;-48
2022/01/11 05:45:34;;;;;;;40.87;14.03;;;1.30;98.90;;;;;;5060105;28;20481;-47
2022/01/11 05:48:03;;;;;;;35.50;13.30;;;1.40;98.80;;;;;;5060655;28;20538;-48
2022/01/11 05:50:31;;;;;;;41.70;12.77;;;1.40;98.80;;;;;;5039704;28;20488;-48
2022/01/11 05:52:58;;;;;;;35.57;13.00;;;1.40;98.80;;;;;;5096543;27;20495;-47
2022/01/11 05:55:25;;;;;;;59.70;17.17;;;1.50;98.70;;;;;;5054704;28;20552;-47
2022/01/11 05:57:51;;;;;;;46.43;14.43;;;1.50;98.60;;;;;;5053991;28;20490;-48
2022/01/11 06:00:20;;;;;;;50.23;13.93;;;1.50;98.60;;;;;;5054903;28;20539;-48
2022/01/11 06:02:52;;;;;;;64.20;14.20;;;1.60;98.60;;;;;;5058699;28;20909;-47
2022/01/11 06:05:19;;;;;;;49.97;14.20;;;1.50;98.40;;;;;;5050300;28;20477;-47
2022/01/11 06:07:46;;;;;;;36.43;14.30;;;1.40;98.40;;;;;;5062983;28;20484;-47
2022/01/11 06:10:14;;;;;;;50.97;14.83;;;1.40;98.50;;;;;;5060108;28;20530;-48
2022/01/11 06:12:41;;;;;;;59.13;15.50;;;1.40;98.50;;;;;;5059428;28;20496;-47
2022/01/11 06:15:08;;;;;;;59.73;14.80;;;1.40;98.50;;;;;;5059227;28;21511;-47
2022/01/11 06:17:35;;;;;;;34.63;13.90;;;1.50;98.60;;;;;;5050825;28;20545;-47
2022/01/11 06:20:05;;;;;;;51.73;17.87;;;1.50;98.50;;;;;;5067380;28;20513;-48
2022/01/11 06:22:32;;;;;;;81.73;17.57;;;1.50;98.60;;;;;;5056963;28;20481;-48
2022/01/11 06:25:03;;;;;;;62.93;13.90;;;1.50;98.50;;;;;;5040202;28;20473;-48
2022/01/11 06:27:30;;;;;;;69.10;16.13;;;1.40;98.10;;;;;;5047739;28;20468;-48
2022/01/11 06:29:56;;;;;;;40.47;12.80;;;1.40;98.40;;;;;;5057550;28;20481;-47
2022/01/11 06:32:23;;;;;;;41.77;14.47;;;1.40;98.40;;;;;;5057178;28;20815;-47
2022/01/11 06:34:52;;;;;;;81.17;20.53;;;1.30;98.20;;;;;;5058887;28;20554;-47
2022/01/11 06:37:20;;;;;;;65.20;14.77;;;1.30;98.40;;;;;;5042094;28;20574;-47
2022/01/11 06:39:47;;;;;;;63.97;16.30;;;1.30;98.40;;;;;;5079172;27;20481;-48
2022/01/11 06:42:14;;;;;;;66.80;15.57;;;1.30;98.80;;;;;;5059538;28;20806;-47
2022/01/11 06:44:42;;;;;;;35.13;13.10;;;1.30;98.40;;;;;;5049627;28;20879;-48
2022/01/11 06:47:08;;;;;;;51.17;14.73;;;1.30;98.40;;;;;;5058704;28;21042;-47
2022/01/11 06:49:35;;;;;;;53.90;15.40;;;1.30;98.40;;;;;;5054677;28;20975;-47
2022/01/11 06:52:03;;;;;;;68.03;15.60;;;1.20;98.40;;;;;;5031471;28;20478;-47
2022/01/11 06:54:31;;;;;;;43.17;15.77;;;1.20;98.20;;;;;;5046875;28;20945;-47
2022/01/11 06:56:58;;;;;;;45.43;14.00;;;1.20;98.40;;;;;;5058767;28;21129;-48
2022/01/11 06:59:25;;;;;;;28.70;13.90;;;1.20;98.40;;;;;;5060177;28;20482;-47
2022/01/11 07:01:51;;;;;;;44.60;12.90;;;1.20;98.40;;;;;;5061209;28;20882;-47
2022/01/11 07:04:18;;;;;;;28.10;12.50;;;1.10;98.20;;;;;;5056675;28;20494;-47
2022/01/11 07:06:45;;;;;;;38.30;12.90;;;1.20;98.30;;;;;;5049336;28;20849;-47
2022/01/11 07:09:12;;;;;;;25.13;12.60;;;1.20;98.40;;;;;;5047504;28;20804;-47
2022/01/11 07:11:40;;;;;;;30.33;12.50;;;1.20;98.20;;;;;;5065951;28;20539;-48
2022/01/11 07:14:06;;;;;;;33.60;13.30;;;1.20;98.30;;;;;;5059891;28;20483;-47
2022/01/11 07:16:33;;;;;;;27.70;11.43;;;1.20;98.20;;;;;;5059134;28;20538;-48
2022/01/11 07:19:00;;;;;;;30.43;13.60;;;1.20;98.10;;;;;;5059638;28;20967;-47
2022/01/11 07:21:27;;;;;;;28.57;13.73;;;1.10;97.70;;;;;;5059526;28;20480;-47
2022/01/11 07:23:54;;;;;;;31.10;12.30;;;1.10;97.90;;;;;;5059974;28;20486;-48
2022/01/11 07:26:20;;;;;;;64.27;13.10;;;1.10;97.90;;;;;;5062547;28;20536;-48
2022/01/11 07:28:48;;;;;;;34.10;11.83;;;1.00;97.80;;;;;;5061240;28;20535;-48
2022/01/11 07:31:15;;;;;;;30.93;13.17;;;1.00;98.00;;;;;;5063106;28;20473;-48
2022/01/11 07:33:42;;;;;;;27.23;11.97;;;1.00;98.10;;;;;;5063955;28;21131;-48
2022/01/11 07:36:16;;;;;;;38.87;15.13;;;1.00;98.10;;;;;;5065158;28;20542;-47
2022/01/11 07:38:43;;;;;;;36.83;14.23;;;1.10;98.20;;;;;;5031442;28;20484;-48
2022/01/11 07:41:09;;;;;;;46.43;15.40;;;1.20;98.20;;;;;;5048618;28;20481;-47
2022/01/11 07:43:36;;;;;;;52.37;15.03;;;1.20;98.10;;;;;;5056574;28;20546;-47
2022/01/11 07:46:05;;;;;;;39.40;12.90;;;1.20;98.10;;;;;;5062349;28;20531;-47
2022/01/11 07:48:32;;;;;;;48.57;14.50;;;1.20;98.10;;;;;;5060165;28;20915;-47
2022/01/11 07:50:59;;;;;;;62.20;14.57;;;1.10;98.00;;;;;;5044942;28;20520;-47
2022/01/11 07:53:25;;;;;;;37.60;14.47;;;1.10;98.20;;;;;;5057921;28;20492;-48
2022/01/11 07:55:52;;;;;;;44.50;17.77;;;1.10;98.30;;;;;;5053129;28;21000;-48
2022/01/11 07:58:19;;;;;;;44.10;18.07;;;1.20;98.40;;;;;;5059947;28;20500;-48
2022/01/11 08:00:46;;;;;;;49.17;19.40;;;1.20;98.40;;;;;;5062333;28;20509;-48
2022/01/11 08:03:14;;;;;;;63.53;20.57;;;1.20;98.40;;;;;;5054363;28;20507;-48
2022/01/11 08:05:41;;;;;;;47.33;18.47;;;1.20;98.40;;;;;;5022744;28;20482;-47
2022/01/11 08:08:07;;;;;;;62.50;17.97;;;1.20;98.30;;;;;;5039070;28;20495;-47
2022/01/11 08:10:34;;;;;;;51.90;15.63;;;1.20;98.30;;;;;;5045381;28;20485;-47
2022/01/11 08:13:02;;;;;;;52.87;16.17;;;1.20;98.20;;;;;;5043237;28;20505;-47
2022/01/11 08:15:29;;;;;;;34.70;14.47;;;1.20;98.30;;;;;;5044063;28;20503;-47
2022/01/11 08:17:55;;;;;;;41.50;17.10;;;1.20;98.30;;;;;;5050317;28;21006;-47
2022/01/11 08:20:24;;;;;;;35.57;15.47;;;1.20;98.30;;;;;;5050150;28;20492;-47
2022/01/11 08:22:51;;;;;;;84.03;15.70;;;1.30;98.30;;;;;;5045725;28;20483;-48
2022/01/11 08:25:18;;;;;;;40.13;14.43;;;1.10;98.00;;;;;;5063519;28;20481;-47
2022/01/11 08:27:45;;;;;;;37.17;14.10;;;1.20;98.30;;;;;;5055625;28;20477;-48
2022/01/11 08:30:12;;;;;;;41.10;16.60;;;1.20;98.30;;;;;;5051672;28;20539;-47
2022/01/11 08:32:39;;;;;;;27.27;14.10;;;1.20;98.40;;;;;;5051766;28;20693;-48
2022/01/11 08:35:06;;;;;;;32.13;14.97;;;1.30;98.50;;;;;;5048226;28;20562;-47
2022/01/11 08:37:35;;;;;;;44.43;16.70;;;1.40;98.50;;;;;;5046646;28;20480;-48
2022/01/11 08:40:02;;;;;;;28.50;12.87;;;1.40;98.40;;;;;;5051743;27;20528;-47
2022/01/11 08:42:29;;;;;;;56.53;15.63;;;1.40;98.00;;;;;;5057424;28;20478;-47
2022/01/11 08:44:56;;;;;;;31.40;14.57;;;1.30;98.20;;;;;;5054719;28;20489;-47
2022/01/11 08:47:24;;;;;;;36.47;15.33;;;1.40;98.40;;;;;;5037357;28;20569;-47
2022/01/11 08:49:51;;;;;;;34.00;16.10;;;1.40;98.40;;;;;;5053082;27;20622;-48
2022/01/11 08:52:18;;;;;;;42.03;18.13;;;1.50;98.60;;;;;;5061321;27;21009;-47
2022/01/11 08:54:46;;;;;;;34.33;15.77;;;1.60;98.60;;;;;;5065086;28;20567;-47
2022/01/11 08:57:13;;;;;;;43.33;17.07;;;1.80;98.60;;;;;;5039278;28;21026;-48
2022/01/11 08:59:39;;;;;;;40.17;15.13;;;1.90;98.70;;;;;;5050254;28;20485;-47
2022/01/11 09:02:06;;;;;;;48.43;17.13;;;2.10;98.60;;;;;;5046606;28;20470;-47
2022/01/11 09:04:33;;;;;;;33.73;16.37;;;2.40;98.70;;;;;;5043091;28;20730;-47
2022/01/11 09:07:00;;;;;;;43.30;18.23;;;2.60;98.50;;;;;;5050044;28;20497;-47
2022/01/11 09:09:28;;;;;;;48.00;20.17;;;2.70;98.20;;;;;;5047774;28;20497;-47
2022/01/11 09:11:57;;;;;;;34.90;15.93;;;2.70;97.80;;;;;;5051823;28;20474;-47
2022/01/11 09:14:24;;;;;;;37.90;15.40;;;2.80;98.20;;;;;;5040584;28;20543;-48
2022/01/11 09:16:51;;;;;;;51.00;18.47;;;2.80;97.90;;;;;;5045781;28;20528;-47
2022/01/11 09:19:19;;;;;;;32.77;15.20;;;2.90;97.80;;;;;;5039344;28;20498;-48
2022/01/11 09:21:45;;;;;;;53.50;19.80;;;3.10;98.10;;;;;;5042435;28;20485;-55
2022/01/11 09:24:13;;;;;;;35.23;18.30;;;3.20;98.10;;;;;;5059178;28;20517;-47
2022/01/11 09:26:40;;;;;;;39.23;16.63;;;3.40;98.10;;;;;;5054601;28;20498;-48
2022/01/11 09:29:08;;;;;;;50.40;18.43;;;3.50;97.80;;;;;;5049458;28;20964;-47
2022/01/11 09:31:35;;;;;;;39.33;18.50;;;3.60;97.60;;;;;;5051660;28;20902;-48
2022/01/11 09:34:02;;;;;;;31.13;16.43;;;3.80;97.80;;;;;;5049058;28;20482;-48
2022/01/11 09:36:29;;;;;;;33.30;18.33;;;3.90;97.60;;;;;;5049365;28;20932;-47
2022/01/11 09:38:56;;;;;;;34.57;17.03;;;4.10;98.00;;;;;;5030371;28;20995;-48
2022/01/11 09:41:23;;;;;;;39.03;19.07;;;4.30;98.10;;;;;;5048382;28;20512;-48
2022/01/11 09:43:50;;;;;;;35.00;18.70;;;4.60;98.00;;;;;;5047478;28;20858;-48
2022/01/11 09:46:18;;;;;;;36.03;18.10;;;4.80;97.60;;;;;;5043265;28;21160;-47
2022/01/11 09:48:47;;;;;;;36.77;19.47;;;5.00;97.60;;;;;;5050399;28;20521;-47
2022/01/11 09:51:13;;;;;;;27.97;16.33;;;5.20;97.80;;;;;;5047668;28;21001;-47
2022/01/11 09:53:41;;;;;;;25.17;14.30;;;5.40;97.60;;;;;;5040652;28;20566;-47
2022/01/11 09:56:09;;;;;;;23.77;14.57;;;5.60;97.30;;;;;;5048128;28;20765;-47
2022/01/11 09:58:36;;;;;;;21.03;12.43;;;5.70;97.00;;;;;;5068569;28;20487;-47
2022/01/11 10:01:04;;;;;;;27.17;16.13;;;5.80;97.10;;;;;;5062811;28;20476;-47
2022/01/11 10:03:53;;;;;;;28.00;14.97;;;6.00;97.20;;;;;;5068979;28;21066;-46
2022/01/11 10:06:21;;;;;;;23.90;13.60;;;6.10;96.80;;;;;;5044702;28;20487;-46
2022/01/11 10:08:48;;;;;;;23.60;12.80;;;6.20;96.60;;;;;;5042337;28;20475;-46
2022/01/11 10:11:15;;;;;;;24.17;13.93;;;6.30;96.70;;;;;;5035674;28;20479;-46
2022/01/11 10:13:43;;;;;;;22.63;14.33;;;6.10;96.00;;;;;;5036476;28;21022;-46
2022/01/11 10:16:20;;;;;;;26.07;15.43;;;6.10;96.20;;;;;;5043264;28;21033;-46
2022/01/11 10:18:48;;;;;;;26.50;14.07;;;6.00;96.20;;;;;;5069609;28;20481;-46
2022/01/11 10:21:33;;;;;;;25.83;14.87;;;5.90;95.90;;;;;;5046795;28;20494;-46
2022/01/11 10:23:59;;;;;;;23.83;12.97;;;5.70;96.20;;;;;;5052724;28;20469;-46
2022/01/11 10:26:43;;;;;;;30.67;16.40;;;5.60;96.60;;;;;;5053276;28;20479;-46
2022/01/11 10:29:27;;;;;;;28.90;17.47;;;5.70;96.80;;;;;;5051151;28;20894;-46
2022/01/11 10:31:55;;;;;;;22.97;14.20;;;5.80;97.40;;;;;;5053229;28;20561;-46
2022/01/11 10:34:32;;;;;;;26.40;14.53;;;6.00;97.50;;;;;;5050554;28;20486;-46
2022/01/11 10:37:01;;;;;;;23.67;14.00;;;6.20;97.50;;;;;;5063629;27;20488;-47
2022/01/11 10:39:32;;;;;;;28.73;15.53;;;6.40;97.20;;;;;;5086828;27;20494;-47
2022/01/11 10:42:00;;;;;;;26.37;15.47;;;6.60;97.50;;;;;;5068778;28;20479;-47
2022/01/11 10:44:51;;;;;;;26.10;15.27;;;6.80;97.40;;;;;;5068236;28;20958;-47
2022/01/11 10:47:22;;;;;;;24.33;14.07;;;7.10;97.70;;;;;;5065287;28;20963;-46
2022/01/11 10:49:52;;;;;;;23.50;15.57;;;7.30;97.00;;;;;;5047754;28;20489;-47
2022/01/11 10:52:20;;;;;;;24.57;14.10;;;7.40;96.70;;;;;;5042728;28;20911;-47
2022/01/11 10:54:48;;;;;;;29.83;15.00;;;7.60;96.80;;;;;;5020809;28;20492;-47
2022/01/11 10:57:17;;;;;;;23.37;14.97;;;7.70;96.80;;;;;;5041077;28;20840;-48
2022/01/11 10:59:44;;;;;;;27.93;13.60;;;7.90;97.10;;;;;;5037212;28;21062;-47
2022/01/11 11:02:14;;;;;;;30.97;17.30;;;8.00;97.20;;;;;;5041333;28;20866;-47
2022/01/11 11:04:40;;;;;;;25.00;15.63;;;8.20;96.80;;;;;;5047515;28;20471;-48
2022/01/11 11:07:14;;;;;;;25.60;16.17;;;8.40;97.00;;;;;;5035428;28;20482;-47
2022/01/11 11:09:44;;;;;;;29.70;15.23;;;8.50;96.60;;;;;;5049412;28;20593;-47
2022/01/11 11:12:16;;;;;;;26.30;15.87;;;8.60;96.30;;;;;;5047872;28;20505;-47
2022/01/11 11:14:50;;;;;;;28.83;16.50;;;8.70;96.20;;;;;;5036796;28;20542;-47
2022/01/11 11:17:28;;;;;;;29.80;16.23;;;8.80;96.50;;;;;;5052604;28;20535;-47
2022/01/11 11:19:57;;;;;;;26.13;15.60;;;8.80;96.40;;;;;;5023883;28;20872;-47
2022/01/11 11:22:25;;;;;;;21.53;15.30;;;9.00;96.90;;;;;;5020817;28;20480;-47
2022/01/11 11:24:53;;;;;;;23.07;15.33;;;9.10;96.40;;;;;;5052740;28;20506;-48
2022/01/11 11:27:20;;;;;;;26.23;15.33;;;9.30;96.30;;;;;;5037087;28;21043;-47
2022/01/11 11:29:48;;;;;;;22.90;15.83;;;9.30;95.90;;;;;;5036138;28;20974;-48
2022/01/11 11:32:17;;;;;;;21.97;14.23;;;9.40;96.30;;;;;;5046831;28;20984;-47
2022/01/11 11:34:48;;;;;;;25.73;13.43;;;9.50;96.50;;;;;;5046258;28;20486;-48
2022/01/11 11:37:19;;;;;;;25.97;15.67;;;9.60;96.60;;;;;;5036835;28;20583;-47
2022/01/11 11:39:54;;;;;;;19.63;13.70;;;9.70;96.30;;;;;;5061446;28;20474;-47
2022/01/11 11:42:23;;;;;;;20.17;13.43;;;9.80;96.20;;;;;;5054395;28;20827;-48
2022/01/11 11:44:50;;;;;;;22.70;14.80;;;9.80;96.40;;;;;;5062270;28;21204;-48
2022/01/11 11:47:30;;;;;;;21.37;13.77;;;10.00;95.80;;;;;;5067179;28;20489;-47
2022/01/11 11:50:00;;;;;;;19.87;13.37;;;10.20;96.00;;;;;;5057208;28;20572;-48
2022/01/11 11:52:29;;;;;;;21.37;14.43;;;10.30;95.30;;;;;;5060419;28;20479;-48
2022/01/11 11:54:59;;;;;;;21.43;13.80;;;10.30;95.70;;;;;;5065118;28;20469;-47
2022/01/11 11:57:30;;;;;;;24.80;15.40;;;10.40;95.90;;;;;;5065229;28;21212;-48
2022/01/11 11:59:58;;;;;;;17.23;13.70;;;10.50;95.70;;;;;;5055237;27;20475;-48
2022/01/11 12:02:38;;;;;;;22.47;13.50;;;10.70;95.70;;;;;;5055850;28;20853;-47
2022/01/11 12:05:06;;;;;;;25.90;14.53;;;10.70;95.50;;;;;;5065777;28;20469;-48
2022/01/11 12:07:38;;;;;;;19.97;13.07;;;10.70;95.00;;;;;;5059637;28;20479;-49
2022/01/11 12:10:13;;;;;;;18.30;13.00;;;10.70;94.50;;;;;;5067082;28;20482;-48
2022/01/11 12:12:44;;;;;;;16.23;13.07;;;10.70;94.90;;;;;;5082298;27;21086;-48
2022/01/11 12:15:35;;;;;;;19.80;12.00;;;10.70;94.50;;;;;;5074090;27;20830;-48
2022/01/11 12:18:18;;;;;;;22.37;12.70;;;10.70;95.00;;;;;;5068312;28;20921;-47
2022/01/11 12:20:48;;;;;;;18.07;11.27;;;10.80;94.90;;;;;;5061008;28;20901;-48
2022/01/11 12:23:20;;;;;;;16.90;10.77;;;10.80;94.30;;;;;;5058709;28;20565;-48
2022/01/11 12:25:53;;;;;;;18.40;11.30;;;10.70;93.80;;;;;;5064192;28;20577;-47
2022/01/11 12:28:22;;;;;;;21.03;12.40;;;10.50;93.70;;;;;;5059779;28;20480;-48
2022/01/11 12:30:50;;;;;;;16.10;12.20;;;10.40;94.30;;;;;;5065555;28;20557;-47
2022/01/11 12:33:19;;;;;;;16.17;11.00;;;10.30;94.60;;;;;;5089601;27;20481;-48
2022/01/11 12:35:58;;;;;;;16.20;12.17;;;10.30;94.80;;;;;;5066410;27;20482;-47
2022/01/11 12:38:26;;;;;;;16.57;12.20;;;10.30;94.50;;;;;;5085387;27;20998;-48
2022/01/11 12:40:54;;;;;;;21.70;11.83;;;10.40;93.90;;;;;;5079649;27;20856;-49